sensor_id;sensor_type;location;lat;lon;timestamp;P1;durP1;ratioP1;P2;durP2;ratioP2
13406;SDS011;6774;48.208;10.766;2022-12-29T00:02:16;5.27;;;4.87;;
13406;SDS011;6774;48.208;10.766;2022-12-29T00:04:44;5.27;;;4.63;;
13406;SDS011;6774;48.208;10.766;2022-12-29T00:07:12;4.63;;;4.20;;
13406;SDS011;6774;48.208;10.766;2022-12-29T00:09:41;3.67;;;2.73;;
13406;SDS011;6774;48.208;10.766;2022-12-29T00:12:10;4.40;;;4.00;;
13406;SDS011;6774;48.208;10.766;2022-12-29T00:14:37;3.20;;;1.97;;
13406;SDS011;6774;48.208;10.766;2022-12-29T00:17:23;2.43;;;2.30;;
13406;SDS011;6774;48.208;10.766;2022-12-29T00:19:51;1.57;;;0.90;;
13406;SDS011;6774;48.208;10.766;2022-12-29T00:22:37;1.63;;;1.50;;
13406;SDS011;6774;48.208;10.766;2022-12-29T00:25:22;0.90;;;0.90;;
13406;SDS011;6774;48.208;10.766;2022-12-29T00:28:10;0.73;;;0.50;;
13406;SDS011;6774;48.208;10.766;2022-12-29T00:30:58;0.50;;;0.50;;
13406;SDS011;6774;48.208;10.766;2022-12-29T00:33:44;1.63;;;0.40;;
13406;SDS011;6774;48.208;10.766;2022-12-29T00:36:30;0.30;;;0.30;;
13406;SDS011;6774;48.208;10.766;2022-12-29T00:39:01;2.00;;;0.33;;
13406;SDS011;6774;48.208;10.766;2022-12-29T00:41:48;1.03;;;1.00;;
13406;SDS011;6774;48.208;10.766;2022-12-29T00:44:31;0.80;;;0.77;;
13406;SDS011;6774;48.208;10.766;2022-12-29T00:46:59;0.80;;;0.80;;
13406;SDS011;6774;48.208;10.766;2022-12-29T00:49:31;1.53;;;1.43;;
13406;SDS011;6774;48.208;10.766;2022-12-29T00:52:00;0.77;;;0.70;;
13406;SDS011;6774;48.208;10.766;2022-12-29T00:54:30;2.50;;;1.17;;
13406;SDS011;6774;48.208;10.766;2022-12-29T00:57:00;0.83;;;0.83;;
13406;SDS011;6774;48.208;10.766;2022-12-29T00:59:29;0.60;;;0.60;;
13406;SDS011;6774;48.208;10.766;2022-12-29T01:01:59;0.70;;;0.67;;
13406;SDS011;6774;48.208;10.766;2022-12-29T01:04:27;1.80;;;0.50;;
13406;SDS011;6774;48.208;10.766;2022-12-29T01:06:55;1.40;;;0.63;;
13406;SDS011;6774;48.208;10.766;2022-12-29T01:09:23;0.53;;;0.40;;
13406;SDS011;6774;48.208;10.766;2022-12-29T01:12:09;0.40;;;0.33;;
13406;SDS011;6774;48.208;10.766;2022-12-29T01:14:39;0.53;;;0.30;;
13406;SDS011;6774;48.208;10.766;2022-12-29T01:17:07;1.50;;;0.70;;
13406;SDS011;6774;48.208;10.766;2022-12-29T01:19:35;1.00;;;0.67;;
13406;SDS011;6774;48.208;10.766;2022-12-29T01:22:03;0.47;;;0.37;;
13406;SDS011;6774;48.208;10.766;2022-12-29T01:24:32;1.57;;;0.87;;
13406;SDS011;6774;48.208;10.766;2022-12-29T01:27:00;0.67;;;0.67;;
13406;SDS011;6774;48.208;10.766;2022-12-29T01:29:28;0.50;;;0.47;;
13406;SDS011;6774;48.208;10.766;2022-12-29T01:31:58;0.40;;;0.20;;
13406;SDS011;6774;48.208;10.766;2022-12-29T01:34:26;0.37;;;0.23;;
13406;SDS011;6774;48.208;10.766;2022-12-29T01:36:54;0.23;;;0.20;;
13406;SDS011;6774;48.208;10.766;2022-12-29T01:39:23;0.50;;;0.40;;
13406;SDS011;6774;48.208;10.766;2022-12-29T01:41:51;0.83;;;0.27;;
13406;SDS011;6774;48.208;10.766;2022-12-29T01:47:25;0.27;;;0.10;;
13406;SDS011;6774;48.208;10.766;2022-12-29T01:49:58;0.30;;;0.30;;
13406;SDS011;6774;48.208;10.766;2022-12-29T01:52:32;0.43;;;0.43;;
13406;SDS011;6774;48.208;10.766;2022-12-29T01:55:02;0.50;;;0.40;;
13406;SDS011;6774;48.208;10.766;2022-12-29T01:57:33;0.33;;;0.30;;
13406;SDS011;6774;48.208;10.766;2022-12-29T02:00:05;0.60;;;0.33;;
13406;SDS011;6774;48.208;10.766;2022-12-29T02:02:43;0.80;;;0.60;;
13406;SDS011;6774;48.208;10.766;2022-12-29T02:05:15;0.47;;;0.23;;
13406;SDS011;6774;48.208;10.766;2022-12-29T02:07:48;0.67;;;0.20;;
13406;SDS011;6774;48.208;10.766;2022-12-29T02:10:19;0.20;;;0.10;;
13406;SDS011;6774;48.208;10.766;2022-12-29T02:12:49;0.50;;;0.43;;
13406;SDS011;6774;48.208;10.766;2022-12-29T02:15:17;0.70;;;0.43;;
13406;SDS011;6774;48.208;10.766;2022-12-29T02:18:01;0.53;;;0.40;;
13406;SDS011;6774;48.208;10.766;2022-12-29T02:24:17;0.83;;;0.20;;
13406;SDS011;6774;48.208;10.766;2022-12-29T02:27:15;0.90;;;0.50;;
13406;SDS011;6774;48.208;10.766;2022-12-29T02:30:03;0.57;;;0.57;;
13406;SDS011;6774;48.208;10.766;2022-12-29T02:32:41;0.70;;;0.30;;
13406;SDS011;6774;48.208;10.766;2022-12-29T02:35:20;1.07;;;0.47;;
13406;SDS011;6774;48.208;10.766;2022-12-29T02:37:56;0.30;;;0.30;;
13406;SDS011;6774;48.208;10.766;2022-12-29T02:40:31;0.93;;;0.53;;
13406;SDS011;6774;48.208;10.766;2022-12-29T02:43:09;0.70;;;0.30;;
13406;SDS011;6774;48.208;10.766;2022-12-29T02:45:45;0.43;;;0.43;;
13406;SDS011;6774;48.208;10.766;2022-12-29T02:48:18;0.40;;;0.20;;
13406;SDS011;6774;48.208;10.766;2022-12-29T02:50:53;1.03;;;0.30;;
13406;SDS011;6774;48.208;10.766;2022-12-29T02:53:26;0.40;;;0.30;;
13406;SDS011;6774;48.208;10.766;2022-12-29T02:56:17;2.03;;;0.73;;
13406;SDS011;6774;48.208;10.766;2022-12-29T02:58:45;0.30;;;0.20;;
13406;SDS011;6774;48.208;10.766;2022-12-29T03:01:16;0.67;;;0.30;;
13406;SDS011;6774;48.208;10.766;2022-12-29T03:03:56;0.30;;;0.30;;
13406;SDS011;6774;48.208;10.766;2022-12-29T03:06:41;0.57;;;0.10;;
13406;SDS011;6774;48.208;10.766;2022-12-29T03:09:20;2.37;;;0.43;;
13406;SDS011;6774;48.208;10.766;2022-12-29T03:12:03;0.20;;;0.13;;
13406;SDS011;6774;48.208;10.766;2022-12-29T03:14:44;0.70;;;0.60;;
13406;SDS011;6774;48.208;10.766;2022-12-29T03:17:45;0.10;;;0.10;;
13406;SDS011;6774;48.208;10.766;2022-12-29T03:20:20;0.10;;;0.10;;
13406;SDS011;6774;48.208;10.766;2022-12-29T03:22:55;0.10;;;0.10;;
13406;SDS011;6774;48.208;10.766;2022-12-29T03:25:29;0.40;;;0.40;;
13406;SDS011;6774;48.208;10.766;2022-12-29T03:28:02;0.60;;;0.60;;
13406;SDS011;6774;48.208;10.766;2022-12-29T03:30:40;0.37;;;0.20;;
13406;SDS011;6774;48.208;10.766;2022-12-29T03:33:12;0.60;;;0.60;;
13406;SDS011;6774;48.208;10.766;2022-12-29T03:35:45;0.20;;;0.20;;
13406;SDS011;6774;48.208;10.766;2022-12-29T03:38:18;0.93;;;0.30;;
13406;SDS011;6774;48.208;10.766;2022-12-29T03:40:51;0.50;;;0.20;;
13406;SDS011;6774;48.208;10.766;2022-12-29T03:43:25;0.87;;;0.73;;
13406;SDS011;6774;48.208;10.766;2022-12-29T03:45:55;0.17;;;0.13;;
13406;SDS011;6774;48.208;10.766;2022-12-29T03:48:23;0.20;;;0.20;;
13406;SDS011;6774;48.208;10.766;2022-12-29T03:50:54;1.07;;;0.27;;
13406;SDS011;6774;48.208;10.766;2022-12-29T03:53:22;0.20;;;0.20;;
13406;SDS011;6774;48.208;10.766;2022-12-29T03:55:50;0.20;;;0.10;;
13406;SDS011;6774;48.208;10.766;2022-12-29T03:58:18;0.80;;;0.37;;
13406;SDS011;6774;48.208;10.766;2022-12-29T04:00:54;0.50;;;0.20;;
13406;SDS011;6774;48.208;10.766;2022-12-29T04:03:22;0.60;;;0.50;;
13406;SDS011;6774;48.208;10.766;2022-12-29T04:05:51;0.33;;;0.30;;
13406;SDS011;6774;48.208;10.766;2022-12-29T04:08:21;5.17;;;1.73;;
13406;SDS011;6774;48.208;10.766;2022-12-29T04:10:49;1.57;;;0.47;;
13406;SDS011;6774;48.208;10.766;2022-12-29T04:13:20;0.40;;;0.30;;
13406;SDS011;6774;48.208;10.766;2022-12-29T04:15:48;0.60;;;0.60;;
13406;SDS011;6774;48.208;10.766;2022-12-29T04:18:17;0.60;;;0.43;;
13406;SDS011;6774;48.208;10.766;2022-12-29T04:20:46;0.53;;;0.53;;
13406;SDS011;6774;48.208;10.766;2022-12-29T04:23:34;0.30;;;0.20;;
13406;SDS011;6774;48.208;10.766;2022-12-29T04:26:06;0.53;;;0.30;;
13406;SDS011;6774;48.208;10.766;2022-12-29T04:28:54;0.70;;;0.30;;
13406;SDS011;6774;48.208;10.766;2022-12-29T04:31:31;0.20;;;0.20;;
13406;SDS011;6774;48.208;10.766;2022-12-29T04:34:00;0.60;;;0.60;;
13406;SDS011;6774;48.208;10.766;2022-12-29T04:36:29;0.70;;;0.37;;
13406;SDS011;6774;48.208;10.766;2022-12-29T04:38:59;0.90;;;0.80;;
13406;SDS011;6774;48.208;10.766;2022-12-29T04:41:27;0.47;;;0.40;;
13406;SDS011;6774;48.208;10.766;2022-12-29T04:43:55;0.20;;;0.20;;
13406;SDS011;6774;48.208;10.766;2022-12-29T04:46:42;1.13;;;0.80;;
13406;SDS011;6774;48.208;10.766;2022-12-29T04:49:20;0.30;;;0.30;;
13406;SDS011;6774;48.208;10.766;2022-12-29T04:52:12;0.57;;;0.57;;
13406;SDS011;6774;48.208;10.766;2022-12-29T04:54:43;0.20;;;0.20;;
13406;SDS011;6774;48.208;10.766;2022-12-29T04:57:16;1.57;;;0.43;;
13406;SDS011;6774;48.208;10.766;2022-12-29T04:59:49;2.37;;;1.30;;
13406;SDS011;6774;48.208;10.766;2022-12-29T05:02:17;1.53;;;0.40;;
13406;SDS011;6774;48.208;10.766;2022-12-29T05:04:48;1.70;;;0.10;;
13406;SDS011;6774;48.208;10.766;2022-12-29T05:07:17;0.40;;;0.37;;
13406;SDS011;6774;48.208;10.766;2022-12-29T05:09:48;0.80;;;0.20;;
13406;SDS011;6774;48.208;10.766;2022-12-29T05:12:16;0.30;;;0.10;;
13406;SDS011;6774;48.208;10.766;2022-12-29T05:14:55;0.30;;;0.30;;
13406;SDS011;6774;48.208;10.766;2022-12-29T05:17:23;0.30;;;0.10;;
13406;SDS011;6774;48.208;10.766;2022-12-29T05:19:52;0.30;;;0.30;;
13406;SDS011;6774;48.208;10.766;2022-12-29T05:22:21;0.13;;;0.13;;
13406;SDS011;6774;48.208;10.766;2022-12-29T05:24:51;0.20;;;0.20;;
13406;SDS011;6774;48.208;10.766;2022-12-29T05:27:19;0.40;;;0.33;;
13406;SDS011;6774;48.208;10.766;2022-12-29T05:29:57;0.53;;;0.20;;
13406;SDS011;6774;48.208;10.766;2022-12-29T05:32:26;0.93;;;0.17;;
13406;SDS011;6774;48.208;10.766;2022-12-29T05:34:54;0.20;;;0.20;;
13406;SDS011;6774;48.208;10.766;2022-12-29T05:37:23;0.30;;;0.30;;
13406;SDS011;6774;48.208;10.766;2022-12-29T05:39:52;0.43;;;0.30;;
13406;SDS011;6774;48.208;10.766;2022-12-29T05:42:20;0.33;;;0.33;;
13406;SDS011;6774;48.208;10.766;2022-12-29T05:44:59;1.77;;;1.23;;
13406;SDS011;6774;48.208;10.766;2022-12-29T05:47:46;0.70;;;0.70;;
13406;SDS011;6774;48.208;10.766;2022-12-29T05:50:32;0.47;;;0.40;;
13406;SDS011;6774;48.208;10.766;2022-12-29T05:53:08;0.83;;;0.50;;
13406;SDS011;6774;48.208;10.766;2022-12-29T05:55:38;0.57;;;0.50;;
13406;SDS011;6774;48.208;10.766;2022-12-29T05:58:14;1.23;;;0.80;;
13406;SDS011;6774;48.208;10.766;2022-12-29T06:00:42;0.60;;;0.30;;
13406;SDS011;6774;48.208;10.766;2022-12-29T06:03:11;0.40;;;0.23;;
13406;SDS011;6774;48.208;10.766;2022-12-29T06:05:40;0.80;;;0.30;;
13406;SDS011;6774;48.208;10.766;2022-12-29T06:08:08;0.63;;;0.60;;
13406;SDS011;6774;48.208;10.766;2022-12-29T06:10:36;0.87;;;0.80;;
13406;SDS011;6774;48.208;10.766;2022-12-29T06:13:07;0.70;;;0.43;;
13406;SDS011;6774;48.208;10.766;2022-12-29T06:15:39;0.63;;;0.57;;
13406;SDS011;6774;48.208;10.766;2022-12-29T06:18:07;0.30;;;0.30;;
13406;SDS011;6774;48.208;10.766;2022-12-29T06:20:46;2.60;;;0.80;;
13406;SDS011;6774;48.208;10.766;2022-12-29T06:23:16;0.73;;;0.57;;
13406;SDS011;6774;48.208;10.766;2022-12-29T06:25:47;1.53;;;0.63;;
13406;SDS011;6774;48.208;10.766;2022-12-29T06:28:15;0.57;;;0.57;;
13406;SDS011;6774;48.208;10.766;2022-12-29T06:30:44;0.70;;;0.47;;
13406;SDS011;6774;48.208;10.766;2022-12-29T06:33:13;0.73;;;0.60;;
13406;SDS011;6774;48.208;10.766;2022-12-29T06:35:41;0.60;;;0.60;;
13406;SDS011;6774;48.208;10.766;2022-12-29T06:38:09;0.60;;;0.60;;
13406;SDS011;6774;48.208;10.766;2022-12-29T06:40:37;3.30;;;1.07;;
13406;SDS011;6774;48.208;10.766;2022-12-29T06:43:20;2.27;;;0.97;;
13406;SDS011;6774;48.208;10.766;2022-12-29T06:46:00;3.10;;;0.90;;
13406;SDS011;6774;48.208;10.766;2022-12-29T06:48:28;2.10;;;0.83;;
13406;SDS011;6774;48.208;10.766;2022-12-29T06:50:56;0.80;;;0.53;;
13406;SDS011;6774;48.208;10.766;2022-12-29T06:53:24;0.73;;;0.30;;
13406;SDS011;6774;48.208;10.766;2022-12-29T06:55:52;0.73;;;0.30;;
13406;SDS011;6774;48.208;10.766;2022-12-29T06:58:22;0.70;;;0.50;;
13406;SDS011;6774;48.208;10.766;2022-12-29T07:00:50;0.70;;;0.57;;
13406;SDS011;6774;48.208;10.766;2022-12-29T07:03:18;0.40;;;0.20;;
13406;SDS011;6774;48.208;10.766;2022-12-29T07:05:46;1.13;;;0.60;;
13406;SDS011;6774;48.208;10.766;2022-12-29T07:08:14;6.70;;;1.67;;
13406;SDS011;6774;48.208;10.766;2022-12-29T07:10:42;0.80;;;0.43;;
13406;SDS011;6774;48.208;10.766;2022-12-29T07:13:10;0.50;;;0.40;;
13406;SDS011;6774;48.208;10.766;2022-12-29T07:15:39;2.57;;;0.87;;
13406;SDS011;6774;48.208;10.766;2022-12-29T07:18:07;1.17;;;0.53;;
13406;SDS011;6774;48.208;10.766;2022-12-29T07:20:35;0.60;;;0.50;;
13406;SDS011;6774;48.208;10.766;2022-12-29T07:23:03;0.47;;;0.30;;
13406;SDS011;6774;48.208;10.766;2022-12-29T07:25:31;0.30;;;0.27;;
13406;SDS011;6774;48.208;10.766;2022-12-29T07:28:01;0.83;;;0.30;;
13406;SDS011;6774;48.208;10.766;2022-12-29T07:30:29;0.63;;;0.50;;
13406;SDS011;6774;48.208;10.766;2022-12-29T07:32:58;0.80;;;0.60;;
13406;SDS011;6774;48.208;10.766;2022-12-29T07:35:26;0.50;;;0.50;;
13406;SDS011;6774;48.208;10.766;2022-12-29T07:37:54;1.33;;;1.23;;
13406;SDS011;6774;48.208;10.766;2022-12-29T07:40:22;6.67;;;1.70;;
13406;SDS011;6774;48.208;10.766;2022-12-29T07:42:50;3.30;;;0.83;;
13406;SDS011;6774;48.208;10.766;2022-12-29T07:45:26;0.70;;;0.70;;
13406;SDS011;6774;48.208;10.766;2022-12-29T07:48:08;0.53;;;0.47;;
13406;SDS011;6774;48.208;10.766;2022-12-29T07:50:37;1.20;;;0.70;;
13406;SDS011;6774;48.208;10.766;2022-12-29T07:53:05;2.70;;;0.77;;
13406;SDS011;6774;48.208;10.766;2022-12-29T07:55:33;1.00;;;0.73;;
13406;SDS011;6774;48.208;10.766;2022-12-29T07:58:00;6.13;;;0.77;;
13406;SDS011;6774;48.208;10.766;2022-12-29T08:00:29;2.63;;;1.20;;
13406;SDS011;6774;48.208;10.766;2022-12-29T08:02:57;1.13;;;1.10;;
13406;SDS011;6774;48.208;10.766;2022-12-29T08:05:26;1.77;;;0.90;;
13406;SDS011;6774;48.208;10.766;2022-12-29T08:07:54;0.47;;;0.47;;
13406;SDS011;6774;48.208;10.766;2022-12-29T08:10:23;0.70;;;0.63;;
13406;SDS011;6774;48.208;10.766;2022-12-29T08:12:51;0.70;;;0.63;;
13406;SDS011;6774;48.208;10.766;2022-12-29T08:15:19;0.60;;;0.33;;
13406;SDS011;6774;48.208;10.766;2022-12-29T08:17:52;3.50;;;0.80;;
13406;SDS011;6774;48.208;10.766;2022-12-29T08:20:20;0.97;;;0.60;;
13406;SDS011;6774;48.208;10.766;2022-12-29T08:22:51;2.57;;;0.90;;
13406;SDS011;6774;48.208;10.766;2022-12-29T08:25:19;1.10;;;0.97;;
13406;SDS011;6774;48.208;10.766;2022-12-29T08:27:47;1.33;;;0.77;;
13406;SDS011;6774;48.208;10.766;2022-12-29T08:30:15;2.00;;;1.17;;
13406;SDS011;6774;48.208;10.766;2022-12-29T08:32:43;1.03;;;0.60;;
13406;SDS011;6774;48.208;10.766;2022-12-29T08:35:10;0.77;;;0.67;;
13406;SDS011;6774;48.208;10.766;2022-12-29T08:37:39;1.33;;;1.23;;
13406;SDS011;6774;48.208;10.766;2022-12-29T08:40:08;0.60;;;0.60;;
13406;SDS011;6774;48.208;10.766;2022-12-29T08:42:37;0.80;;;0.80;;
13406;SDS011;6774;48.208;10.766;2022-12-29T08:45:05;2.03;;;0.50;;
13406;SDS011;6774;48.208;10.766;2022-12-29T08:47:34;0.30;;;0.23;;
13406;SDS011;6774;48.208;10.766;2022-12-29T08:50:03;0.40;;;0.20;;
13406;SDS011;6774;48.208;10.766;2022-12-29T08:52:31;2.53;;;0.97;;
13406;SDS011;6774;48.208;10.766;2022-12-29T08:54:59;1.57;;;1.10;;
13406;SDS011;6774;48.208;10.766;2022-12-29T08:57:30;0.77;;;0.57;;
13406;SDS011;6774;48.208;10.766;2022-12-29T09:00:04;2.47;;;0.87;;
13406;SDS011;6774;48.208;10.766;2022-12-29T09:02:33;5.37;;;0.50;;
13406;SDS011;6774;48.208;10.766;2022-12-29T09:05:01;0.70;;;0.50;;
13406;SDS011;6774;48.208;10.766;2022-12-29T09:07:28;0.70;;;0.70;;
13406;SDS011;6774;48.208;10.766;2022-12-29T09:09:56;2.03;;;0.20;;
13406;SDS011;6774;48.208;10.766;2022-12-29T09:12:24;1.60;;;1.33;;
13406;SDS011;6774;48.208;10.766;2022-12-29T09:15:00;1.73;;;0.93;;
13406;SDS011;6774;48.208;10.766;2022-12-29T09:17:28;1.30;;;0.83;;
13406;SDS011;6774;48.208;10.766;2022-12-29T09:20:12;1.80;;;0.60;;
13406;SDS011;6774;48.208;10.766;2022-12-29T09:22:40;1.53;;;0.50;;
13406;SDS011;6774;48.208;10.766;2022-12-29T09:25:10;0.97;;;0.67;;
13406;SDS011;6774;48.208;10.766;2022-12-29T09:27:39;1.77;;;1.07;;
13406;SDS011;6774;48.208;10.766;2022-12-29T09:30:09;1.13;;;0.83;;
13406;SDS011;6774;48.208;10.766;2022-12-29T09:32:38;2.30;;;0.47;;
13406;SDS011;6774;48.208;10.766;2022-12-29T09:35:11;0.27;;;0.20;;
13406;SDS011;6774;48.208;10.766;2022-12-29T09:37:39;0.43;;;0.43;;
13406;SDS011;6774;48.208;10.766;2022-12-29T09:40:07;1.43;;;1.27;;
13406;SDS011;6774;48.208;10.766;2022-12-29T09:42:51;1.40;;;1.03;;
13406;SDS011;6774;48.208;10.766;2022-12-29T09:45:30;0.60;;;0.60;;
13406;SDS011;6774;48.208;10.766;2022-12-29T09:48:04;0.70;;;0.57;;
13406;SDS011;6774;48.208;10.766;2022-12-29T09:50:39;0.97;;;0.97;;
13406;SDS011;6774;48.208;10.766;2022-12-29T09:53:13;0.50;;;0.30;;
13406;SDS011;6774;48.208;10.766;2022-12-29T09:55:44;1.33;;;0.30;;
13406;SDS011;6774;48.208;10.766;2022-12-29T09:58:17;1.13;;;0.50;;
13406;SDS011;6774;48.208;10.766;2022-12-29T10:00:54;0.30;;;0.30;;
13406;SDS011;6774;48.208;10.766;2022-12-29T10:03:27;0.73;;;0.73;;
13406;SDS011;6774;48.208;10.766;2022-12-29T10:06:04;0.67;;;0.30;;
13406;SDS011;6774;48.208;10.766;2022-12-29T10:08:39;1.50;;;1.40;;
13406;SDS011;6774;48.208;10.766;2022-12-29T10:11:15;0.80;;;0.60;;
13406;SDS011;6774;48.208;10.766;2022-12-29T10:13:57;0.60;;;0.23;;
13406;SDS011;6774;48.208;10.766;2022-12-29T10:16:46;0.53;;;0.50;;
13406;SDS011;6774;48.208;10.766;2022-12-29T10:19:39;0.40;;;0.30;;
13406;SDS011;6774;48.208;10.766;2022-12-29T10:22:22;0.83;;;0.40;;
13406;SDS011;6774;48.208;10.766;2022-12-29T10:24:59;3.27;;;0.97;;
13406;SDS011;6774;48.208;10.766;2022-12-29T10:27:31;0.40;;;0.30;;
13406;SDS011;6774;48.208;10.766;2022-12-29T10:30:01;0.93;;;0.93;;
13406;SDS011;6774;48.208;10.766;2022-12-29T10:32:33;3.80;;;1.17;;
13406;SDS011;6774;48.208;10.766;2022-12-29T10:35:06;0.20;;;0.20;;
13406;SDS011;6774;48.208;10.766;2022-12-29T10:37:41;1.03;;;0.47;;
13406;SDS011;6774;48.208;10.766;2022-12-29T10:40:18;0.33;;;0.30;;
13406;SDS011;6774;48.208;10.766;2022-12-29T10:42:52;0.47;;;0.33;;
13406;SDS011;6774;48.208;10.766;2022-12-29T10:45:22;0.50;;;0.43;;
13406;SDS011;6774;48.208;10.766;2022-12-29T10:47:55;1.20;;;0.80;;
13406;SDS011;6774;48.208;10.766;2022-12-29T10:50:26;0.10;;;0.10;;
13406;SDS011;6774;48.208;10.766;2022-12-29T10:52:57;0.20;;;0.10;;
13406;SDS011;6774;48.208;10.766;2022-12-29T10:55:28;11.93;;;1.20;;
13406;SDS011;6774;48.208;10.766;2022-12-29T10:58:01;0.63;;;0.40;;
13406;SDS011;6774;48.208;10.766;2022-12-29T11:00:32;0.70;;;0.20;;
13406;SDS011;6774;48.208;10.766;2022-12-29T11:03:07;0.50;;;0.33;;
13406;SDS011;6774;48.208;10.766;2022-12-29T11:05:44;0.20;;;0.10;;
13406;SDS011;6774;48.208;10.766;2022-12-29T11:08:18;0.30;;;0.23;;
13406;SDS011;6774;48.208;10.766;2022-12-29T11:10:57;0.73;;;0.20;;
13406;SDS011;6774;48.208;10.766;2022-12-29T11:13:26;0.43;;;0.13;;
13406;SDS011;6774;48.208;10.766;2022-12-29T11:16:04;3.47;;;0.47;;
13406;SDS011;6774;48.208;10.766;2022-12-29T11:18:35;0.20;;;0.20;;
13406;SDS011;6774;48.208;10.766;2022-12-29T11:21:05;0.53;;;0.20;;
13406;SDS011;6774;48.208;10.766;2022-12-29T11:23:54;0.40;;;0.20;;
13406;SDS011;6774;48.208;10.766;2022-12-29T11:26:23;0.90;;;0.90;;
13406;SDS011;6774;48.208;10.766;2022-12-29T11:29:15;0.63;;;0.30;;
13406;SDS011;6774;48.208;10.766;2022-12-29T11:31:49;0.23;;;0.23;;
13406;SDS011;6774;48.208;10.766;2022-12-29T11:34:20;2.00;;;0.67;;
13406;SDS011;6774;48.208;10.766;2022-12-29T11:36:52;0.40;;;0.20;;
13406;SDS011;6774;48.208;10.766;2022-12-29T11:39:26;0.57;;;0.30;;
13406;SDS011;6774;48.208;10.766;2022-12-29T11:41:58;1.33;;;0.70;;
13406;SDS011;6774;48.208;10.766;2022-12-29T11:44:29;2.17;;;0.30;;
13406;SDS011;6774;48.208;10.766;2022-12-29T11:47:04;0.70;;;0.70;;
13406;SDS011;6774;48.208;10.766;2022-12-29T11:49:38;6.37;;;2.10;;
13406;SDS011;6774;48.208;10.766;2022-12-29T11:52:06;0.40;;;0.20;;
13406;SDS011;6774;48.208;10.766;2022-12-29T11:54:36;0.40;;;0.40;;
13406;SDS011;6774;48.208;10.766;2022-12-29T11:57:09;0.47;;;0.30;;
13406;SDS011;6774;48.208;10.766;2022-12-29T11:59:42;0.50;;;0.20;;
13406;SDS011;6774;48.208;10.766;2022-12-29T12:05:12;0.50;;;0.30;;
13406;SDS011;6774;48.208;10.766;2022-12-29T12:07:46;0.33;;;0.20;;
13406;SDS011;6774;48.208;10.766;2022-12-29T12:10:21;0.73;;;0.30;;
13406;SDS011;6774;48.208;10.766;2022-12-29T12:12:53;0.23;;;0.20;;
13406;SDS011;6774;48.208;10.766;2022-12-29T12:15:29;0.50;;;0.40;;
13406;SDS011;6774;48.208;10.766;2022-12-29T12:18:11;0.80;;;0.30;;
13406;SDS011;6774;48.208;10.766;2022-12-29T12:20:47;0.43;;;0.40;;
13406;SDS011;6774;48.208;10.766;2022-12-29T12:23:25;0.47;;;0.47;;
13406;SDS011;6774;48.208;10.766;2022-12-29T12:26:02;1.33;;;0.20;;
13406;SDS011;6774;48.208;10.766;2022-12-29T12:28:40;0.50;;;0.47;;
13406;SDS011;6774;48.208;10.766;2022-12-29T12:31:16;0.77;;;0.73;;
13406;SDS011;6774;48.208;10.766;2022-12-29T12:33:53;0.33;;;0.33;;
13406;SDS011;6774;48.208;10.766;2022-12-29T12:36:43;2.67;;;0.80;;
13406;SDS011;6774;48.208;10.766;2022-12-29T12:39:22;0.63;;;0.30;;
13406;SDS011;6774;48.208;10.766;2022-12-29T12:41:57;0.40;;;0.40;;
13406;SDS011;6774;48.208;10.766;2022-12-29T12:44:44;1.47;;;0.67;;
13406;SDS011;6774;48.208;10.766;2022-12-29T12:47:28;0.87;;;0.87;;
13406;SDS011;6774;48.208;10.766;2022-12-29T12:50:10;1.90;;;0.30;;
13406;SDS011;6774;48.208;10.766;2022-12-29T12:52:52;0.77;;;0.50;;
13406;SDS011;6774;48.208;10.766;2022-12-29T12:55:35;3.40;;;0.47;;
13406;SDS011;6774;48.208;10.766;2022-12-29T12:58:16;0.40;;;0.30;;
13406;SDS011;6774;48.208;10.766;2022-12-29T13:00:54;0.57;;;0.30;;
13406;SDS011;6774;48.208;10.766;2022-12-29T13:03:39;0.50;;;0.30;;
13406;SDS011;6774;48.208;10.766;2022-12-29T13:06:17;0.73;;;0.73;;
13406;SDS011;6774;48.208;10.766;2022-12-29T13:09:00;9.13;;;0.67;;
13406;SDS011;6774;48.208;10.766;2022-12-29T13:11:44;0.40;;;0.30;;
13406;SDS011;6774;48.208;10.766;2022-12-29T13:14:25;1.93;;;0.50;;
13406;SDS011;6774;48.208;10.766;2022-12-29T13:17:06;0.30;;;0.10;;
13406;SDS011;6774;48.208;10.766;2022-12-29T13:19:44;0.53;;;0.53;;
13406;SDS011;6774;48.208;10.766;2022-12-29T13:22:19;1.10;;;1.00;;
13406;SDS011;6774;48.208;10.766;2022-12-29T13:24:56;0.53;;;0.20;;
13406;SDS011;6774;48.208;10.766;2022-12-29T13:27:43;1.90;;;0.20;;
13406;SDS011;6774;48.208;10.766;2022-12-29T13:30:17;0.30;;;0.17;;
13406;SDS011;6774;48.208;10.766;2022-12-29T13:32:49;2.00;;;0.30;;
13406;SDS011;6774;48.208;10.766;2022-12-29T13:35:37;1.17;;;0.60;;
13406;SDS011;6774;48.208;10.766;2022-12-29T13:38:20;0.87;;;0.40;;
13406;SDS011;6774;48.208;10.766;2022-12-29T13:40:55;3.47;;;0.40;;
13406;SDS011;6774;48.208;10.766;2022-12-29T13:43:27;0.20;;;0.20;;
13406;SDS011;6774;48.208;10.766;2022-12-29T13:45:59;0.50;;;0.50;;
13406;SDS011;6774;48.208;10.766;2022-12-29T13:48:35;5.63;;;0.47;;
13406;SDS011;6774;48.208;10.766;2022-12-29T13:51:07;0.63;;;0.20;;
13406;SDS011;6774;48.208;10.766;2022-12-29T13:53:40;0.70;;;0.30;;
13406;SDS011;6774;48.208;10.766;2022-12-29T13:56:25;6.17;;;0.70;;
13406;SDS011;6774;48.208;10.766;2022-12-29T13:59:03;0.43;;;0.43;;
13406;SDS011;6774;48.208;10.766;2022-12-29T14:01:37;0.80;;;0.43;;
13406;SDS011;6774;48.208;10.766;2022-12-29T14:04:11;0.50;;;0.20;;
13406;SDS011;6774;48.208;10.766;2022-12-29T14:06:41;0.77;;;0.67;;
13406;SDS011;6774;48.208;10.766;2022-12-29T14:12:02;2.40;;;0.60;;
13406;SDS011;6774;48.208;10.766;2022-12-29T14:14:46;0.50;;;0.40;;
13406;SDS011;6774;48.208;10.766;2022-12-29T14:17:17;2.40;;;0.90;;
13406;SDS011;6774;48.208;10.766;2022-12-29T14:19:47;0.40;;;0.20;;
13406;SDS011;6774;48.208;10.766;2022-12-29T14:22:22;0.47;;;0.40;;
13406;SDS011;6774;48.208;10.766;2022-12-29T14:24:58;0.60;;;0.40;;
13406;SDS011;6774;48.208;10.766;2022-12-29T14:27:52;1.30;;;0.70;;
13406;SDS011;6774;48.208;10.766;2022-12-29T14:33:15;1.70;;;0.50;;
13406;SDS011;6774;48.208;10.766;2022-12-29T14:35:49;1.47;;;0.27;;
13406;SDS011;6774;48.208;10.766;2022-12-29T14:38:23;0.33;;;0.20;;
13406;SDS011;6774;48.208;10.766;2022-12-29T14:40:52;1.37;;;0.40;;
13406;SDS011;6774;48.208;10.766;2022-12-29T14:44:09;0.97;;;0.30;;
13406;SDS011;6774;48.208;10.766;2022-12-29T14:46:45;0.97;;;0.53;;
13406;SDS011;6774;48.208;10.766;2022-12-29T14:49:16;0.60;;;0.40;;
13406;SDS011;6774;48.208;10.766;2022-12-29T14:51:46;0.67;;;0.57;;
13406;SDS011;6774;48.208;10.766;2022-12-29T14:54:34;0.40;;;0.30;;
13406;SDS011;6774;48.208;10.766;2022-12-29T14:57:13;0.37;;;0.30;;
13406;SDS011;6774;48.208;10.766;2022-12-29T14:59:48;0.90;;;0.20;;
13406;SDS011;6774;48.208;10.766;2022-12-29T15:02:22;0.30;;;0.20;;
13406;SDS011;6774;48.208;10.766;2022-12-29T15:04:53;3.80;;;0.50;;
13406;SDS011;6774;48.208;10.766;2022-12-29T15:07:26;0.30;;;0.30;;
13406;SDS011;6774;48.208;10.766;2022-12-29T15:09:56;0.23;;;0.23;;
13406;SDS011;6774;48.208;10.766;2022-12-29T15:12:32;0.43;;;0.43;;
13406;SDS011;6774;48.208;10.766;2022-12-29T15:15:17;2.23;;;0.30;;
13406;SDS011;6774;48.208;10.766;2022-12-29T15:17:47;2.47;;;0.50;;
13406;SDS011;6774;48.208;10.766;2022-12-29T15:20:17;0.27;;;0.20;;
13406;SDS011;6774;48.208;10.766;2022-12-29T15:22:52;7.07;;;0.40;;
13406;SDS011;6774;48.208;10.766;2022-12-29T15:25:22;1.50;;;0.20;;
13406;SDS011;6774;48.208;10.766;2022-12-29T15:27:53;0.90;;;0.90;;
13406;SDS011;6774;48.208;10.766;2022-12-29T15:30:26;0.40;;;0.20;;
13406;SDS011;6774;48.208;10.766;2022-12-29T15:32:55;2.50;;;0.43;;
13406;SDS011;6774;48.208;10.766;2022-12-29T15:35:28;0.60;;;0.50;;
13406;SDS011;6774;48.208;10.766;2022-12-29T15:37:58;1.03;;;0.40;;
13406;SDS011;6774;48.208;10.766;2022-12-29T15:40:29;1.50;;;0.30;;
13406;SDS011;6774;48.208;10.766;2022-12-29T15:43:03;2.30;;;0.30;;